Time;durP1;ratioP1;P1;durP2;ratioP2;P2;SDS_P1;SDS_P2;PMS_P1;PMS_P2;Temp;Humidity;BMP_temperature;BMP_pressure;BME280_temperature;BME280_humidity;BME280_pressure;Samples;Min_cycle;Max_cycle;Signal;HPM_P1;HPM_P2
2021/09/11 00:02:03;;;;;;;2.58;2.00;;;;;;;30.16;23.25;98351.25;5068201;28;20037;-86
2021/09/11 00:04:29;;;;;;;5.35;1.98;;;;;;;30.27;22.87;98352.38;5063636;28;20035;-86
2021/09/11 00:06:55;;;;;;;2.80;2.10;;;;;;;30.11;23.44;98355.50;5069089;28;20041;-86
2021/09/11 00:09:21;;;;;;;3.15;2.15;;;;;;;30.09;23.25;98353.16;5052590;28;20036;-86
2021/09/11 00:11:47;;;;;;;3.70;1.85;;;;;;;30.13;23.23;98352.97;5067852;28;20028;-86
2021/09/11 00:14:13;;;;;;;3.85;1.90;;;;;;;30.13;23.65;98343.72;5064519;28;20097;-86
2021/09/11 00:16:39;;;;;;;2.47;1.58;;;;;;;30.30;23.07;98354.28;5060136;28;20492;-86
2021/09/11 00:19:05;;;;;;;3.22;1.92;;;;;;;30.43;22.79;98354.19;5069195;28;20066;-86
2021/09/11 00:21:31;;;;;;;4.35;1.40;;;;;;;30.16;23.01;98354.09;5066346;28;20481;-86
2021/09/11 00:23:58;;;;;;;2.33;1.50;;;;;;;30.20;22.87;98352.69;5063366;28;20041;-86
2021/09/11 00:26:24;;;;;;;4.82;1.70;;;;;;;30.39;22.42;98354.31;5079774;28;20051;-86
2021/09/11 00:28:51;;;;;;;3.58;1.60;;;;;;;30.24;22.44;98347.66;5071029;28;20117;-86
2021/09/11 00:31:17;;;;;;;3.30;1.73;;;;;;;30.23;22.25;98348.13;5068514;28;20036;-86
2021/09/11 00:33:43;;;;;;;3.30;1.83;;;;;;;30.00;22.49;98343.84;5067345;28;20043;-86
2021/09/11 00:36:09;;;;;;;1.83;1.63;;;;;;;29.86;23.00;98342.38;5058036;28;20033;-87
2021/09/11 00:38:35;;;;;;;4.57;1.83;;;;;;;29.93;22.67;98344.94;5072868;28;20036;-86
2021/09/11 00:41:02;;;;;;;2.55;1.85;;;;;;;30.13;22.54;98343.72;5070818;28;20028;-86
2021/09/11 00:43:28;;;;;;;2.25;1.67;;;;;;;30.05;22.67;98346.06;5063064;28;20054;-86
2021/09/11 00:45:54;;;;;;;3.40;1.80;;;;;;;29.92;23.25;98337.69;5067074;28;20031;-86
2021/09/11 00:48:21;;;;;;;4.15;2.05;;;;;;;29.80;22.90;98344.25;5060595;28;20463;-86
2021/09/11 00:50:47;;;;;;;2.75;1.80;;;;;;;29.73;23.07;98340.91;5058165;28;20059;-86
2021/09/11 00:53:14;;;;;;;3.45;2.00;;;;;;;29.57;23.40;98341.16;5071782;28;20037;-86
2021/09/11 00:55:43;;;;;;;2.22;1.55;;;;;;;29.68;23.37;98336.66;5066633;28;20390;-86
2021/09/11 00:58:10;;;;;;;2.88;1.52;;;;;;;29.81;23.14;98334.50;5066887;28;20032;-86
2021/09/11 01:00:36;;;;;;;3.17;1.65;;;;;;;29.90;22.95;98337.34;5068934;28;20555;-87
2021/09/11 01:03:02;;;;;;;2.40;1.65;;;;;;;29.88;23.03;98334.22;5063679;28;20068;-86
2021/09/11 01:05:28;;;;;;;2.75;1.40;;;;;;;29.83;23.17;98331.19;5046118;28;20119;-86
2021/09/11 01:07:54;;;;;;;6.57;1.73;;;;;;;29.68;23.24;98335.84;5064984;28;20179;-87
2021/09/11 01:10:21;;;;;;;2.05;1.48;;;;;;;29.77;23.02;98342.38;5050602;28;20400;-86
2021/09/11 01:12:48;;;;;;;2.10;1.60;;;;;;;29.82;23.47;98326.81;5070600;28;20051;-86
2021/09/11 01:15:14;;;;;;;2.25;1.75;;;;;;;29.65;23.23;98340.41;5054869;28;20035;-86
2021/09/11 01:17:42;;;;;;;2.58;1.70;;;;;;;29.74;23.71;98340.44;5072750;28;20043;-85
2021/09/11 01:20:09;;;;;;;2.63;2.20;;;;;;;29.58;23.90;98340.69;5073216;28;20401;-86
2021/09/11 01:22:36;;;;;;;2.55;1.83;;;;;;;29.29;24.13;98335.34;5056998;28;20036;-86
2021/09/11 01:25:07;;;;;;;2.22;1.63;;;;;;;29.18;24.59;98334.19;5065854;28;20438;-86
2021/09/11 01:27:33;;;;;;;;;;;;;;;29.34;24.26;98339.63;5063117;28;20091;-86
2021/09/11 01:30:05;;;;;;;3.25;1.48;;;;;;;29.59;23.58;98342.28;5059372;28;19916;-87
2021/09/11 01:32:32;;;;;;;1.77;1.48;;;;;;;29.78;23.39;98343.91;5047263;28;20033;-87
2021/09/11 01:34:58;;;;;;;2.22;1.33;;;;;;;29.67;23.29;98331.44;5064924;28;20036;-86
2021/09/11 01:37:24;;;;;;;2.28;1.40;;;;;;;29.74;23.23;98339.63;5063065;28;20111;-86
2021/09/11 01:39:51;;;;;;;3.33;1.70;;;;;;;29.94;22.61;98340.06;5065935;28;20078;-86
2021/09/11 01:42:20;;;;;;;2.28;1.70;;;;;;;29.86;23.12;98341.59;5071194;28;20024;-86
2021/09/11 01:44:49;;;;;;;1.95;1.35;;;;;;;29.60;23.59;98343.84;5061601;28;20022;-86
2021/09/11 01:47:15;;;;;;;3.97;1.63;;;;;;;29.55;23.51;98347.25;5059489;28;20567;-86
2021/09/11 01:49:42;;;;;;;2.10;1.50;;;;;;;29.67;23.11;98339.91;5066627;28;20031;-86
2021/09/11 01:52:09;;;;;;;2.55;1.30;;;;;;;29.90;22.85;98345.84;5063297;28;21333;-86
2021/09/11 01:54:36;;;;;;;2.80;1.80;;;;;;;29.91;22.55;98341.78;5066900;28;20048;-86
2021/09/11 01:57:03;;;;;;;2.00;1.50;;;;;;;29.86;23.20;98345.22;5058802;28;20487;-85
2021/09/11 01:59:29;;;;;;;3.70;1.83;;;;;;;29.70;23.01;98347.50;5067522;28;20028;-86
2021/09/11 02:01:55;;;;;;;1.92;1.42;;;;;;;29.66;22.82;98342.00;5069303;28;20036;-85
2021/09/11 02:04:21;;;;;;;2.25;1.60;;;;;;;29.57;23.28;98338.34;5066872;28;20575;-86
2021/09/11 02:06:47;;;;;;;1.70;1.55;;;;;;;29.53;23.08;98344.13;5070475;28;20476;-86
2021/09/11 02:09:14;;;;;;;2.65;1.63;;;;;;;29.59;23.34;98345.09;5068848;28;20404;-86
2021/09/11 02:11:40;;;;;;;1.65;1.33;;;;;;;29.47;23.65;98342.38;5066104;28;20035;-86
2021/09/11 02:14:06;;;;;;;4.05;1.60;;;;;;;29.43;23.58;98342.50;5056987;28;20029;-86
2021/09/11 02:16:32;;;;;;;2.58;1.30;;;;;;;29.58;23.61;98342.72;5065862;28;20492;-86
2021/09/11 02:18:58;;;;;;;4.00;2.00;;;;;;;29.58;23.80;98339.88;5068002;28;20071;-86
2021/09/11 02:21:24;;;;;;;1.83;1.42;;;;;;;29.68;23.25;98333.81;5063332;28;20044;-86
2021/09/11 02:23:50;;;;;;;2.47;1.65;;;;;;;29.72;23.07;98339.31;5062348;28;20407;-86
2021/09/11 02:26:17;;;;;;;2.30;1.42;;;;;;;29.76;23.33;98343.59;5057430;28;20515;-86
2021/09/11 02:28:43;;;;;;;3.47;1.90;;;;;;;29.85;22.80;98335.13;5062198;28;20037;-86
2021/09/11 02:31:10;;;;;;;2.80;1.70;;;;;;;29.93;22.74;98344.13;5058842;28;20033;-86
2021/09/11 02:33:37;;;;;;;3.60;1.67;;;;;;;29.89;22.94;98337.84;5063101;28;20040;-86
2021/09/11 02:36:04;;;;;;;1.83;1.50;;;;;;;29.78;22.93;98341.09;5066035;28;20028;-85
2021/09/11 02:38:30;;;;;;;1.70;1.20;;;;;;;29.82;22.78;98347.41;5068452;28;20033;-86
2021/09/11 02:40:56;;;;;;;3.50;1.67;;;;;;;29.88;22.70;98334.22;5067414;28;20028;-85
2021/09/11 02:43:22;;;;;;;1.13;1.02;;;;;;;29.98;22.37;98329.34;5053947;28;20033;-86
2021/09/11 02:45:48;;;;;;;1.48;1.35;;;;;;;30.09;22.30;98335.34;5062010;28;20035;-85
2021/09/11 02:48:14;;;;;;;2.70;1.42;;;;;;;30.17;21.99;98341.50;5043675;28;20095;-86
2021/09/11 02:50:41;;;;;;;1.67;1.30;;;;;;;30.14;22.06;98343.25;5063902;28;20034;-85
2021/09/11 02:53:07;;;;;;;1.80;1.35;;;;;;;30.09;22.14;98343.84;5065637;28;20047;-86
2021/09/11 02:55:33;;;;;;;1.58;1.33;;;;;;;30.05;22.18;98343.22;5069597;28;20111;-86
2021/09/11 02:57:59;;;;;;;1.65;1.38;;;;;;;29.99;22.33;98342.28;5071693;28;20025;-86
2021/09/11 03:00:25;;;;;;;2.28;1.42;;;;;;;29.92;22.31;98334.06;5053979;28;20038;-86
2021/09/11 03:02:51;;;;;;;1.70;1.30;;;;;;;29.86;22.23;98333.91;5069147;28;20028;-86
2021/09/11 03:05:17;;;;;;;1.85;1.20;;;;;;;29.86;22.23;98331.06;5070505;28;20036;-86
2021/09/11 03:07:43;;;;;;;1.88;1.08;;;;;;;29.82;22.24;98333.25;5073528;28;20042;-85
2021/09/11 03:10:10;;;;;;;1.35;1.10;;;;;;;29.73;22.14;98338.88;5070468;28;20060;-86
2021/09/11 03:12:36;;;;;;;2.90;1.35;;;;;;;29.72;22.56;98344.97;5065469;28;20035;-86
2021/09/11 03:15:03;;;;;;;3.90;1.20;;;;;;;29.70;22.45;98339.78;5054980;28;20404;-86
2021/09/11 03:17:29;;;;;;;1.65;1.27;;;;;;;29.59;22.38;98335.81;5070603;28;20044;-86
2021/09/11 03:19:55;;;;;;;2.13;1.45;;;;;;;29.61;22.45;98333.31;5064684;28;20053;-86
2021/09/11 03:22:21;;;;;;;1.30;1.17;;;;;;;29.73;22.24;98332.41;5059872;28;20060;-86
2021/09/11 03:24:47;;;;;;;2.05;1.52;;;;;;;29.61;22.22;98333.31;5042668;28;20024;-86
2021/09/11 03:27:13;;;;;;;1.65;1.30;;;;;;;29.36;22.59;98323.75;5049226;28;20039;-86
2021/09/11 03:29:39;;;;;;;1.45;1.35;;;;;;;29.22;23.21;98324.31;5062450;28;20029;-86
2021/09/11 03:32:06;;;;;;;2.00;1.25;;;;;;;29.27;22.79;98320.88;5066581;28;20464;-86
2021/09/11 03:34:33;;;;;;;3.08;1.42;;;;;;;28.98;22.89;98323.22;5069391;28;20033;-86
2021/09/11 03:36:59;;;;;;;4.50;1.20;;;;;;;28.73;23.16;98326.97;5066200;28;20499;-87
2021/09/11 03:39:25;;;;;;;2.85;1.08;;;;;;;28.85;23.23;98319.66;5064228;28;20170;-87
2021/09/11 03:41:52;;;;;;;2.13;1.20;;;;;;;29.00;22.74;98323.53;5062972;28;20041;-86
2021/09/11 03:44:18;;;;;;;1.92;1.40;;;;;;;28.74;22.94;98316.47;5068418;28;20037;-86
2021/09/11 03:46:44;;;;;;;2.70;1.20;;;;;;;28.71;23.59;98317.38;5074714;28;20036;-87
2021/09/11 03:49:10;;;;;;;2.10;1.67;;;;;;;28.67;23.32;98314.69;5058119;28;20041;-86
2021/09/11 03:51:36;;;;;;;2.38;1.95;;;;;;;28.79;23.09;98313.03;5063121;28;20071;-87
2021/09/11 03:54:03;;;;;;;1.95;1.58;;;;;;;28.94;23.32;98302.75;5063846;28;20021;-87
2021/09/11 03:56:29;;;;;;;1.55;1.10;;;;;;;29.02;23.00;98303.28;5059724;28;20059;-87
2021/09/11 03:58:55;;;;;;;2.20;0.90;;;;;;;29.12;22.76;98307.75;5059722;28;20489;-87
2021/09/11 04:01:21;;;;;;;1.20;1.00;;;;;;;29.27;22.51;98301.09;5063263;28;20021;-87
2021/09/11 04:03:47;;;;;;;1.23;1.10;;;;;;;29.49;21.98;98311.56;5068277;28;20083;-86
2021/09/11 04:06:14;;;;;;;1.38;1.10;;;;;;;29.54;22.05;98308.91;5074004;28;20090;-86
2021/09/11 04:08:40;;;;;;;1.10;1.00;;;;;;;29.40;22.42;98312.31;5074772;28;20044;-86
2021/09/11 04:11:06;;;;;;;1.05;0.95;;;;;;;29.50;22.33;98310.31;5073248;28;20403;-86
2021/09/11 04:13:34;;;;;;;1.52;1.13;;;;;;;29.48;22.52;98312.84;5074988;28;20040;-87
2021/09/11 04:16:00;;;;;;;1.35;1.00;;;;;;;29.44;22.76;98318.63;5073730;28;20039;-87
2021/09/11 04:18:26;;;;;;;1.63;1.20;;;;;;;29.39;22.40;98317.19;5057115;28;20039;-86
2021/09/11 04:20:52;;;;;;;3.13;1.45;;;;;;;29.39;22.10;98313.56;5072116;28;20056;-87
2021/09/11 04:23:18;;;;;;;1.40;1.30;;;;;;;29.29;22.53;98311.97;5065834;28;20041;-86
2021/09/11 04:25:45;;;;;;;1.85;1.25;;;;;;;29.25;22.73;98314.13;5047864;28;20037;-86
2021/09/11 04:28:11;;;;;;;1.65;1.20;;;;;;;29.13;22.92;98312.13;5074224;28;20060;-86
2021/09/11 04:30:38;;;;;;;1.40;1.13;;;;;;;29.28;22.88;98316.03;5070745;28;20115;-86
2021/09/11 04:33:04;;;;;;;2.13;1.27;;;;;;;29.44;22.19;98310.13;5073744;28;20043;-87
2021/09/11 04:35:31;;;;;;;1.48;1.17;;;;;;;29.35;22.90;98310.09;5074045;28;20036;-87
2021/09/11 04:37:57;;;;;;;3.50;1.08;;;;;;;29.40;22.46;98312.31;5070821;28;20032;-87
2021/09/11 04:40:23;;;;;;;1.75;1.13;;;;;;;29.42;22.87;98313.44;5068027;28;20043;-87
2021/09/11 04:42:50;;;;;;;2.33;1.23;;;;;;;29.40;22.62;98312.31;5073552;28;20078;-87
2021/09/11 04:45:16;;;;;;;1.73;1.33;;;;;;;29.56;22.37;98314.09;5067122;28;20025;-87
2021/09/11 04:47:42;;;;;;;2.75;1.10;;;;;;;29.77;22.40;98316.88;5068576;28;20032;-87
2021/09/11 04:50:08;;;;;;;1.40;1.25;;;;;;;30.08;22.19;98314.75;5070600;28;20036;-86
2021/09/11 04:52:35;;;;;;;3.05;1.05;;;;;;;30.38;21.93;98323.63;5073111;28;20037;-86
2021/09/11 04:55:01;;;;;;;1.48;1.00;;;;;;;30.49;21.81;98313.41;5072970;28;20036;-86
2021/09/11 04:57:27;;;;;;;1.17;1.00;;;;;;;30.54;21.86;98318.44;5060467;28;20106;-87
2021/09/11 04:59:53;;;;;;;1.45;1.08;;;;;;;30.57;21.98;98323.13;5073662;28;20051;-87
2021/09/11 05:02:19;;;;;;;1.55;1.10;;;;;;;30.83;21.74;98320.75;5071375;28;20531;-86
2021/09/11 05:04:45;;;;;;;1.48;1.08;;;;;;;31.05;21.71;98324.22;5079325;28;20078;-87
2021/09/11 05:07:11;;;;;;;2.75;1.30;;;;;;;31.15;21.77;98333.50;5077969;28;20525;-87
2021/09/11 05:09:37;;;;;;;1.98;1.25;;;;;;;31.27;21.61;98326.88;5076102;28;20109;-87
2021/09/11 05:12:04;;;;;;;2.97;1.27;;;;;;;31.48;21.16;98333.59;5073562;28;20044;-87
2021/09/11 05:14:31;;;;;;;1.30;1.20;;;;;;;31.63;21.67;98332.41;5075340;28;20387;-87
2021/09/11 05:16:58;;;;;;;0.98;0.80;;;;;;;31.82;21.42;98333.13;5080436;28;20032;-87
2021/09/11 05:19:25;;;;;;;1.70;1.05;;;;;;;31.66;22.06;98334.31;5071811;28;20033;-86
2021/09/11 05:21:51;;;;;;;2.00;1.27;;;;;;;31.69;22.30;98341.09;5072260;28;20050;-86
2021/09/11 05:24:17;;;;;;;2.50;1.50;;;;;;;31.43;22.62;98340.72;5072279;28;20396;-86
2021/09/11 05:26:43;;;;;;;1.58;1.35;;;;;;;31.19;23.14;98332.06;5055251;28;20036;-87
2021/09/11 05:29:09;;;;;;;2.38;1.38;;;;;;;31.22;23.19;98339.66;5072676;28;20044;-87
2021/09/11 05:31:35;;;;;;;1.85;1.30;;;;;;;31.02;23.56;98344.22;5076866;28;20428;-87
2021/09/11 05:34:05;;;;;;;2.22;1.35;;;;;;;31.05;24.30;98348.97;5071490;28;20557;-87
2021/09/11 05:36:31;;;;;;;1.30;1.00;;;;;;;31.12;24.04;98342.97;5068708;28;20111;-87
2021/09/11 05:38:58;;;;;;;1.42;0.98;;;;;;;31.34;24.04;98338.63;5070785;28;20025;-86
2021/09/11 05:41:25;;;;;;;2.80;1.45;;;;;;;30.93;23.35;98339.38;5070693;28;20756;-86
2021/09/11 05:43:51;;;;;;;3.58;1.73;;;;;;;30.61;24.28;98340.81;5067307;28;20032;-87
2021/09/11 05:46:18;;;;;;;1.73;1.63;;;;;;;30.22;24.57;98336.03;5061641;28;20031;-86
2021/09/11 05:48:44;;;;;;;3.10;1.88;;;;;;;30.90;25.18;98339.56;5070670;28;20127;-86
2021/09/11 05:51:10;;;;;;;2.78;1.95;;;;;;;31.04;24.61;98341.72;5070961;28;20040;-86
2021/09/11 05:53:36;;;;;;;2.63;1.80;;;;;;;31.13;24.56;98342.50;5071492;28;20028;-85
2021/09/11 05:56:02;;;;;;;1.95;1.60;;;;;;;30.94;24.50;98338.13;5053583;28;20040;-86
2021/09/11 05:58:29;;;;;;;2.67;1.33;;;;;;;31.05;24.78;98340.47;5069275;28;20097;-86
2021/09/11 06:00:56;;;;;;;1.67;1.48;;;;;;;31.07;25.39;98326.56;5071265;28;20091;-87
2021/09/11 06:03:22;;;;;;;2.90;2.03;;;;;;;30.53;25.59;98330.22;5063233;28;20033;-87
2021/09/11 06:05:49;;;;;;;2.30;1.70;;;;;;;30.98;25.36;98341.56;5065264;28;20033;-86
2021/09/11 06:08:15;;;;;;;1.90;1.75;;;;;;;30.35;24.95;98333.06;5061758;28;20037;-87
2021/09/11 06:10:41;;;;;;;2.15;1.38;;;;;;;30.91;26.03;98338.28;5063238;28;20060;-87
2021/09/11 06:13:07;;;;;;;1.90;1.60;;;;;;;31.49;24.96;98341.63;5063490;28;20036;-87
2021/09/11 06:15:34;;;;;;;1.98;1.58;;;;;;;32.11;24.43;98335.34;5059621;28;20033;-87
2021/09/11 06:18:00;;;;;;;2.40;1.23;;;;;;;32.06;24.42;98337.59;5062371;28;20396;-87
2021/09/11 06:20:26;;;;;;;2.63;1.98;;;;;;;31.77;24.77;98339.44;5058151;28;20043;-87
2021/09/11 06:22:52;;;;;;;3.13;1.70;;;;;;;31.72;26.44;98340.88;5059216;28;20036;-87
2021/09/11 06:25:18;;;;;;;2.72;1.50;;;;;;;31.56;25.31;98344.13;5063328;28;20029;-88
2021/09/11 06:27:44;;;;;;;2.78;1.58;;;;;;;31.67;25.02;98340.78;5068477;28;20158;-89
2021/09/11 06:30:12;;;;;;;3.75;2.00;;;;;;;31.71;25.39;98344.22;5069034;28;20067;-89
2021/09/11 06:32:39;;;;;;;2.33;1.50;;;;;;;32.05;25.68;98343.75;5069789;28;20040;-89
2021/09/11 06:35:06;;;;;;;3.05;1.65;;;;;;;32.14;25.70;98340.09;5050684;28;20037;-89
2021/09/11 06:37:33;;;;;;;1.30;1.20;;;;;;;32.63;24.56;98334.66;5071315;28;20033;-89
2021/09/11 06:40:00;;;;;;;1.45;1.35;;;;;;;32.94;24.57;98337.88;5074609;28;20021;-89
2021/09/11 06:42:26;;;;;;;1.73;1.60;;;;;;;31.86;25.36;98345.06;5058389;28;20404;-89
2021/09/11 06:44:52;;;;;;;1.98;1.42;;;;;;;31.23;26.11;98346.09;5084799;28;20024;-89
2021/09/11 06:47:18;;;;;;;2.15;1.63;;;;;;;31.50;26.24;98345.25;5077477;28;20040;-89
2021/09/11 06:49:44;;;;;;;2.65;1.60;;;;;;;32.51;26.21;98338.59;5076022;28;20040;-89
2021/09/11 06:52:11;;;;;;;2.10;1.52;;;;;;;31.66;26.04;98348.50;5075840;28;20043;-89
2021/09/11 06:54:37;;;;;;;2.40;1.77;;;;;;;31.88;24.96;98348.25;5069500;28;20028;-89
2021/09/11 06:57:04;;;;;;;1.95;1.13;;;;;;;32.58;25.02;98355.28;5077594;28;20028;-89
2021/09/11 06:59:30;;;;;;;3.00;1.60;;;;;;;32.27;25.93;98346.28;5073455;28;20079;-89
2021/09/11 07:01:56;;;;;;;1.38;1.10;;;;;;;32.86;24.46;98344.44;5070868;28;20032;-89
2021/09/11 07:04:23;;;;;;;2.88;1.60;;;;;;;33.27;23.86;98354.78;5068561;28;20550;-88
2021/09/11 07:06:49;;;;;;;2.72;1.33;;;;;;;33.77;24.69;98347.13;5063032;28;20111;-90
2021/09/11 07:09:15;;;;;;;3.47;1.30;;;;;;;33.33;24.79;98344.28;5073424;28;20491;-89
2021/09/11 07:11:41;;;;;;;3.20;1.45;;;;;;;32.45;25.62;98352.63;5072220;28;20408;-89
2021/09/11 07:14:08;;;;;;;2.10;1.20;;;;;;;33.30;23.73;98339.59;5072722;28;20063;-89
2021/09/11 07:16:34;;;;;;;5.00;1.27;;;;;;;33.07;24.54;98341.22;5067040;28;20029;-89
2021/09/11 07:19:00;;;;;;;2.00;1.60;;;;;;;33.32;25.69;98351.25;5060818;28;20041;-87
2021/09/11 07:21:26;;;;;;;1.67;1.30;;;;;;;33.49;23.67;98352.34;5068809;28;20131;-88
2021/09/11 07:23:52;;;;;;;2.30;1.40;;;;;;;33.86;23.21;98342.09;5071434;28;20036;-89
2021/09/11 07:26:19;;;;;;;1.23;0.90;;;;;;;34.15;22.55;98343.28;5074075;28;20116;-88
2021/09/11 07:28:49;;;;;;;2.88;1.30;;;;;;;34.29;23.41;98351.78;5071784;28;20488;-88
2021/09/11 07:31:16;;;;;;;1.48;1.27;;;;;;;34.16;23.18;98353.41;5065946;28;20039;-89
2021/09/11 07:33:43;;;;;;;1.80;1.10;;;;;;;34.43;23.20;98353.78;5066008;28;20021;-89
2021/09/11 07:36:09;;;;;;;1.52;1.10;;;;;;;34.10;24.14;98361.88;5057081;28;20036;-88
2021/09/11 07:38:36;;;;;;;2.45;1.50;;;;;;;33.98;23.05;98352.34;5069631;28;20028;-89
2021/09/11 07:41:04;;;;;;;1.92;1.65;;;;;;;33.92;22.36;98357.19;5072823;28;20044;-90
2021/09/11 07:43:30;;;;;;;1.50;1.40;;;;;;;34.25;22.88;98359.78;5057767;28;20032;-90
2021/09/11 07:45:57;;;;;;;2.67;1.33;;;;;;;34.69;23.52;98360.38;5067714;28;20025;-89
2021/09/11 07:48:23;;;;;;;1.33;1.23;;;;;;;34.29;24.42;98362.41;5073855;28;20040;-88
2021/09/11 07:50:49;;;;;;;2.40;1.00;;;;;;;34.99;22.41;98360.16;5072031;28;20112;-87
2021/09/11 07:53:15;;;;;;;2.83;1.00;;;;;;;34.65;22.93;98362.66;5055032;28;20091;-89
2021/09/11 07:55:42;;;;;;;4.50;1.10;;;;;;;33.81;24.42;98356.25;5067333;28;20029;-89
2021/09/11 07:58:08;;;;;;;2.05;1.08;;;;;;;34.60;22.52;98351.97;5069598;28;20126;-88
2021/09/11 08:00:34;;;;;;;1.73;1.10;;;;;;;33.81;24.51;98371.28;5065999;28;20047;-89
2021/09/11 08:03:01;;;;;;;2.33;1.40;;;;;;;34.08;24.00;98358.75;5066438;28;20043;-88
2021/09/11 08:05:27;;;;;;;1.38;1.27;;;;;;;34.06;25.31;98367.78;5059006;28;20043;-90
2021/09/11 08:07:53;;;;;;;1.27;1.15;;;;;;;33.92;24.92;98359.25;5071943;28;20093;-90
2021/09/11 08:10:21;;;;;;;1.70;1.40;;;;;;;33.16;24.90;98361.09;5071022;28;20033;-89
2021/09/11 08:12:48;;;;;;;2.45;1.42;;;;;;;33.66;23.95;98359.09;5070660;28;20028;-88
2021/09/11 08:15:18;;;;;;;2.88;1.17;;;;;;;34.65;24.25;98359.03;5066441;28;20029;-91
2021/09/11 08:17:45;;;;;;;0.98;0.95;;;;;;;35.49;22.11;98361.50;5063192;28;20032;-90
2021/09/11 08:20:13;;;;;;;1.60;1.40;;;;;;;34.42;23.55;98363.63;5067790;28;20043;-90
2021/09/11 08:22:41;;;;;;;1.75;1.13;;;;;;;33.58;24.70;98360.00;5064301;28;20523;-90
2021/09/11 08:25:08;;;;;;;1.60;0.88;;;;;;;34.23;23.49;98358.69;5051161;28;20032;-90
2021/09/11 08:27:34;;;;;;;1.25;1.15;;;;;;;34.77;24.59;98352.16;5062658;28;20036;-90
2021/09/11 08:30:01;;;;;;;1.33;1.23;;;;;;;35.32;22.99;98351.97;5062997;28;20033;-90
2021/09/11 08:32:27;;;;;;;1.55;0.90;;;;;;;36.12;22.37;98353.69;5061586;28;20028;-90
2021/09/11 08:34:53;;;;;;;0.95;0.85;;;;;;;36.84;20.76;98351.19;5071877;28;20127;-90
2021/09/11 08:37:19;;;;;;;1.00;0.80;;;;;;;37.11;20.44;98344.78;5068189;28;20036;-89
2021/09/11 08:39:46;;;;;;;0.70;0.70;;;;;;;37.12;20.97;98354.16;5071169;28;20024;-89
2021/09/11 08:42:12;;;;;;;1.27;0.80;;;;;;;36.85;20.79;98354.84;5070876;28;20481;-90
2021/09/11 08:44:38;;;;;;;1.20;0.90;;;;;;;36.94;20.81;98346.84;5067861;28;20033;-89
2021/09/11 08:47:06;;;;;;;0.73;0.68;;;;;;;37.31;19.99;98347.41;5072632;28;20491;-90
2021/09/11 08:49:34;;;;;;;1.48;0.88;;;;;;;37.63;19.60;98344.31;5068500;28;20037;-89
2021/09/11 08:52:03;;;;;;;1.10;0.88;;;;;;;37.58;19.84;98345.88;5066074;28;20487;-89
2021/09/11 08:54:29;;;;;;;1.65;0.80;;;;;;;37.64;19.69;98352.41;5067284;28;20056;-89
2021/09/11 08:56:56;;;;;;;1.20;0.60;;;;;;;37.77;19.10;98337.53;5061903;28;20036;-89
2021/09/11 08:59:24;;;;;;;1.33;0.80;;;;;;;37.60;19.05;98342.50;5065236;28;20392;-90
2021/09/11 09:02:09;;;;;;;0.93;0.85;;;;;;;37.81;19.61;98335.97;5071510;28;20105;-89
2021/09/11 09:04:46;;;;;;;0.98;0.55;;;;;;;37.55;18.41;98329.75;5069147;28;20071;-89
2021/09/11 09:07:27;;;;;;;0.98;0.77;;;;;;;37.67;19.13;98321.94;5059208;28;20029;-89
2021/09/11 09:09:58;;;;;;;0.45;0.45;;;;;;;38.01;18.77;98324.25;5064190;28;20044;-90
2021/09/11 09:12:24;;;;;;;2.33;0.70;;;;;;;37.83;19.10;98327.66;5063525;28;20111;-91
2021/09/11 09:15:05;;;;;;;0.93;0.60;;;;;;;37.53;18.87;98328.72;5067657;28;20024;-91
2021/09/11 09:17:48;;;;;;;0.68;0.60;;;;;;;37.36;18.74;98325.81;5056990;28;20028;-91
2021/09/11 09:20:23;;;;;;;0.60;0.60;;;;;;;37.56;18.34;98319.84;5065341;28;20083;-91
2021/09/11 09:23:16;;;;;;;2.38;0.57;;;;;;;37.52;16.92;98322.19;5067828;28;20063;-89
2021/09/11 09:25:42;;;;;;;0.80;0.70;;;;;;;37.00;17.60;98324.72;5066339;28;20480;-90
2021/09/11 09:28:11;;;;;;;1.13;0.60;;;;;;;37.57;17.61;98329.22;5067381;28;20388;-91
2021/09/11 09:30:46;;;;;;;1.33;0.68;;;;;;;37.94;16.65;98324.00;5070640;28;20115;-88
2021/09/11 09:33:21;;;;;;;0.73;0.60;;;;;;;38.22;16.48;98333.31;5050317;28;20392;-89
2021/09/11 09:35:48;;;;;;;1.33;0.50;;;;;;;38.10;16.34;98334.66;5065713;28;20036;-88
2021/09/11 09:38:14;;;;;;;0.65;0.45;;;;;;;37.96;16.38;98321.38;5071007;28;20072;-89
2021/09/11 09:40:45;;;;;;;1.05;0.63;;;;;;;37.88;16.58;98331.84;5068596;28;20032;-88
2021/09/11 09:43:13;;;;;;;2.25;0.65;;;;;;;38.19;16.81;98316.34;5072586;28;20025;-88
2021/09/11 09:45:40;;;;;;;1.60;0.70;;;;;;;38.21;16.46;98322.38;5070861;28;20115;-88
2021/09/11 09:48:11;;;;;;;2.47;0.70;;;;;;;38.56;16.68;98320.41;5056666;28;20052;-87
2021/09/11 09:50:41;;;;;;;0.40;0.40;;;;;;;38.54;16.96;98322.25;5069402;28;20093;-88
2021/09/11 09:53:09;;;;;;;1.13;0.70;;;;;;;38.44;17.51;98321.78;5072007;28;20075;-89
2021/09/11 09:55:42;;;;;;;0.80;0.50;;;;;;;38.13;15.78;98313.53;5068263;28;20078;-88
2021/09/11 09:58:09;;;;;;;0.60;0.50;;;;;;;37.64;17.61;98314.38;5053393;28;20029;-87
2021/09/11 10:00:35;;;;;;;0.60;0.60;;;;;;;38.15;16.54;98318.72;5059364;28;20033;-87
2021/09/11 10:03:02;;;;;;;1.65;0.50;;;;;;;38.10;16.06;98320.31;5064986;28;20039;-87
2021/09/11 10:05:29;;;;;;;1.13;0.63;;;;;;;38.60;16.11;98309.44;5062441;28;20121;-87
2021/09/11 10:08:11;;;;;;;0.75;0.60;;;;;;;38.84;16.48;98320.31;5063189;28;20043;-87
2021/09/11 10:10:40;;;;;;;0.98;0.40;;;;;;;39.05;15.49;98312.06;5071403;28;20029;-88
2021/09/11 10:13:11;;;;;;;0.43;0.43;;;;;;;38.91;15.25;98322.63;5071703;28;20029;-87
2021/09/11 10:15:52;;;;;;;0.55;0.40;;;;;;;38.72;15.73;98318.03;5056587;28;20090;-84
2021/09/11 10:18:44;;;;;;;0.70;0.50;;;;;;;38.49;14.45;98320.97;5076901;28;20055;-83
2021/09/11 10:21:13;;;;;;;0.55;0.52;;;;;;;38.74;14.49;98315.41;5074595;28;20090;-84
2021/09/11 10:24:03;;;;;;;0.40;0.32;;;;;;;39.01;13.05;98321.00;5077202;28;20029;-84
2021/09/11 10:26:50;;;;;;;0.35;0.35;;;;;;;39.21;13.90;98311.25;5056862;28;20052;-84
2021/09/11 10:29:31;;;;;;;0.30;0.30;;;;;;;38.14;13.71;98317.19;5072591;28;20032;-83
2021/09/11 10:32:08;;;;;;;0.40;0.40;;;;;;;38.41;13.67;98311.38;5074829;28;20036;-83
2021/09/11 10:34:54;;;;;;;0.50;0.50;;;;;;;38.69;13.62;98322.72;5068084;28;20025;-83
2021/09/11 10:37:26;;;;;;;0.60;0.60;;;;;;;39.05;13.16;98324.34;5060365;28;20040;-82
2021/09/11 10:40:24;;;;;;;1.10;0.47;;;;;;;39.09;13.65;98318.34;5070876;28;20036;-83
2021/09/11 10:43:11;;;;;;;0.50;0.50;;;;;;;39.41;12.26;98319.44;5074326;28;20032;-84
2021/09/11 10:45:58;;;;;;;1.45;0.40;;;;;;;39.02;11.50;98327.53;5078470;28;20475;-84
2021/09/11 10:48:54;;;;;;;0.45;0.45;;;;;;;39.53;13.21;98317.25;5072002;28;20041;-84
2021/09/11 10:51:30;;;;;;;0.73;0.40;;;;;;;39.82;12.90;98323.00;5069124;28;20035;-84
2021/09/11 10:54:10;;;;;;;0.30;0.30;;;;;;;40.12;12.63;98313.59;5073453;28;20056;-83
2021/09/11 10:56:38;;;;;;;1.50;0.38;;;;;;;40.23;13.24;98310.56;5069276;28;20021;-84
2021/09/11 11:02:20;;;;;;;0.90;0.40;;;;;;;39.43;13.33;98311.03;5064310;28;20060;-84
2021/09/11 11:04:49;;;;;;;0.60;0.40;;;;;;;39.54;13.53;98310.19;5071050;28;20024;-84
2021/09/11 11:07:23;;;;;;;4.10;0.40;;;;;;;39.66;12.82;98306.69;5073082;28;20036;-83
2021/09/11 11:09:59;;;;;;;0.52;0.40;;;;;;;39.86;13.00;98308.34;5070519;28;20039;-84
2021/09/11 11:12:28;;;;;;;1.25;0.50;;;;;;;39.72;13.17;98304.56;5060077;28;20036;-83
2021/09/11 11:14:56;;;;;;;0.40;0.35;;;;;;;39.26;13.96;98302.56;5063066;28;20040;-84
2021/09/11 11:17:22;;;;;;;0.40;0.40;;;;;;;39.32;12.97;98306.19;5067063;28;20036;-84
2021/09/11 11:19:50;;;;;;;0.30;0.22;;;;;;;39.58;14.15;98302.84;5069488;28;20033;-84
2021/09/11 11:22:26;;;;;;;0.40;0.40;;;;;;;39.99;14.11;98300.59;5067534;28;20500;-84
2021/09/11 11:24:53;;;;;;;0.28;0.28;;;;;;;40.20;13.11;98294.38;5068485;28;20093;-85
2021/09/11 11:27:23;;;;;;;0.52;0.30;;;;;;;40.56;13.58;98299.44;5067672;28;20035;-84
2021/09/11 11:29:51;;;;;;;0.40;0.25;;;;;;;40.76;12.86;98298.13;5069081;28;20021;-84
2021/09/11 11:32:20;;;;;;;0.68;0.57;;;;;;;40.45;12.84;98299.59;5069643;28;20044;-84
2021/09/11 11:34:49;;;;;;;0.82;0.35;;;;;;;39.85;13.54;98290.31;5071780;28;20361;-85
2021/09/11 11:37:15;;;;;;;0.63;0.50;;;;;;;40.06;12.93;98287.75;5071318;28;20068;-83
2021/09/11 11:39:43;;;;;;;0.50;0.43;;;;;;;39.67;13.01;98284.47;5073093;28;20036;-81
2021/09/11 11:42:11;;;;;;;0.77;0.40;;;;;;;39.96;12.11;98284.41;5067717;28;20036;-81